Terminal Aerodrome Forecast
Issued by NWS Spokane, WA

Home | Current Version | Previous Version | Text Only | Print | Product List | Glossary On
Versions: 1 2 3 4 5 6 7 8 9 10 11 12 13
000
FTUS46 KOTX 251726
TAFEAT
TAF
KEAT 251726Z 2518/2618 29007KT P6SM BKN080
     FM252000 VRB04KT P6SM FEW060 SCT100
     FM260500 31006KT P6SM FEW100
     FM261300 29005KT P6SM SKC=

USA.gov is the U.S. government's official web portal to all federal, state and local government web resources and services.